createdAt,value
2018-08-30T00:01:07.617Z,18.60
2018-08-30T00:03:10.962Z,16.20
2018-08-30T00:05:14.144Z,16.50
2018-08-30T00:07:17.332Z,13.97
2018-08-30T00:09:20.513Z,16.20
2018-08-30T00:11:23.736Z,24.63
2018-08-30T00:13:26.926Z,12.80
2018-08-30T00:15:30.481Z,24.40
2018-08-30T00:17:34.004Z,18.90
2018-08-30T00:19:37.228Z,15.67
2018-08-30T00:21:40.391Z,15.47
2018-08-30T00:23:43.622Z,21.00
2018-08-30T00:25:47.228Z,15.83
2018-08-30T00:27:50.388Z,16.00
2018-08-30T00:29:53.570Z,17.70
2018-08-30T00:31:56.752Z,14.73
2018-08-30T00:33:59.939Z,12.83
2018-08-30T00:36:03.572Z,17.87
2018-08-30T00:38:06.833Z,20.17
2018-08-30T00:40:10.704Z,27.13
2018-08-30T00:42:13.902Z,17.83
2018-08-30T00:44:17.671Z,17.33
2018-08-30T00:46:20.872Z,21.13
2018-08-30T00:48:24.107Z,21.37
2018-08-30T00:50:27.592Z,16.07
2018-08-30T00:52:30.852Z,23.40
2018-08-30T00:54:34.177Z,23.27
2018-08-30T00:56:37.372Z,16.20
2018-08-30T00:58:40.589Z,23.23
2018-08-30T01:00:43.781Z,19.10
2018-08-30T01:02:47.304Z,19.30
2018-08-30T01:04:50.520Z,18.70
2018-08-30T01:06:53.952Z,16.23
2018-08-30T01:08:57.155Z,23.60
2018-08-30T01:11:00.709Z,22.60
2018-08-30T01:13:03.889Z,23.63
2018-08-30T01:15:07.739Z,20.27
2018-08-30T01:17:11.093Z,23.87
2018-08-30T01:19:14.276Z,22.63
2018-08-30T01:21:17.477Z,20.23
2018-08-30T01:23:20.664Z,18.07
2018-08-30T01:25:23.893Z,24.27
2018-08-30T01:27:27.080Z,18.73
2018-08-30T01:29:30.555Z,21.27
2018-08-30T01:31:33.801Z,22.30
2018-08-30T01:33:37.117Z,17.80
2018-08-30T01:35:40.959Z,19.50
2018-08-30T01:37:44.512Z,20.70
2018-08-30T01:39:47.680Z,19.27
2018-08-30T01:41:50.880Z,21.83
2018-08-30T01:43:54.063Z,16.33
2018-08-30T01:45:57.272Z,16.03
2018-08-30T01:48:00.495Z,20.73
2018-08-30T01:50:04.042Z,19.17
2018-08-30T01:52:07.237Z,25.10
2018-08-30T01:54:10.462Z,26.03
2018-08-30T01:56:13.632Z,22.60
2018-08-30T01:58:16.824Z,16.43
2018-08-30T02:00:20.748Z,20.70
2018-08-30T02:02:23.985Z,23.07
2018-08-30T02:04:27.182Z,20.27
2018-08-30T02:06:30.763Z,18.80
2018-08-30T02:08:33.976Z,18.17
2018-08-30T02:10:37.552Z,17.93
2018-08-30T02:12:40.751Z,17.83
2018-08-30T02:14:43.918Z,21.40
2018-08-30T02:16:47.445Z,21.17
2018-08-30T02:18:51.172Z,21.80
2018-08-30T02:20:54.357Z,15.27
2018-08-30T02:22:57.561Z,22.10
2018-08-30T02:25:00.773Z,18.70
2018-08-30T02:27:04.062Z,18.97
2018-08-30T02:29:07.425Z,18.53
2018-08-30T02:31:10.685Z,20.50
2018-08-30T02:33:14.276Z,22.60
2018-08-30T02:35:17.512Z,13.63
2018-08-30T02:37:20.960Z,19.90
2018-08-30T02:39:24.247Z,25.00
2018-08-30T02:41:27.683Z,21.30
2018-08-30T02:43:31.388Z,24.07
2018-08-30T02:45:34.629Z,25.23
2018-08-30T02:47:37.844Z,28.57
2018-08-30T02:49:41.635Z,21.23
2018-08-30T02:51:44.853Z,23.30
2018-08-30T02:53:48.033Z,21.20
2018-08-30T02:55:51.224Z,20.17
2018-08-30T02:57:55.189Z,15.77
2018-08-30T02:59:58.364Z,20.90
2018-08-30T03:02:01.971Z,21.60
2018-08-30T03:04:05.923Z,25.37
2018-08-30T03:06:09.109Z,19.87
2018-08-30T03:08:12.719Z,22.90
2018-08-30T03:10:15.892Z,33.60
2018-08-30T03:12:19.533Z,25.50
2018-08-30T03:14:22.844Z,25.53
2018-08-30T03:16:26.077Z,26.93
2018-08-30T03:18:29.628Z,29.60
2018-08-30T03:20:32.905Z,21.50
2018-08-30T03:22:37.479Z,27.73
2018-08-30T03:24:41.005Z,29.70
2018-08-30T03:26:44.247Z,29.27
2018-08-30T03:28:47.832Z,26.07
2018-08-30T03:30:51.127Z,24.00
2018-08-30T03:32:54.477Z,27.30
2018-08-30T03:34:58.590Z,27.00
2018-08-30T03:37:01.776Z,35.17
2018-08-30T03:39:06.224Z,31.07
2018-08-30T03:41:09.389Z,28.20
2018-08-30T03:43:13.161Z,29.37
2018-08-30T03:45:16.368Z,31.47
2018-08-30T03:47:19.595Z,30.80
2018-08-30T03:49:22.804Z,35.60
2018-08-30T03:51:26.430Z,36.70
2018-08-30T03:53:29.838Z,39.97
2018-08-30T03:55:33.033Z,34.93
2018-08-30T03:57:36.276Z,32.50
2018-08-30T03:59:39.862Z,28.23
2018-08-30T04:01:43.264Z,33.90
2018-08-30T04:03:46.516Z,30.60
2018-08-30T04:05:50.083Z,32.67
2018-08-30T04:07:53.327Z,38.03
2018-08-30T04:09:56.549Z,33.37
2018-08-30T04:11:59.756Z,35.30
2018-08-30T04:14:03.506Z,36.97
2018-08-30T04:16:07.048Z,31.00
2018-08-30T04:18:10.565Z,32.77
2018-08-30T04:20:14.076Z,28.13
2018-08-30T04:22:17.629Z,31.53
2018-08-30T04:24:21.064Z,36.23
2018-08-30T04:26:24.256Z,36.80
2018-08-30T04:28:27.416Z,44.10
2018-08-30T04:30:31.332Z,32.77
2018-08-30T04:32:34.521Z,37.97
2018-08-30T04:34:37.888Z,36.00
2018-08-30T04:36:41.440Z,34.43
2018-08-30T04:38:45.308Z,36.27
2018-08-30T04:40:48.837Z,36.47
2018-08-30T04:42:52.169Z,41.27
2018-08-30T04:44:55.670Z,39.27
2018-08-30T04:46:58.848Z,37.00
2018-08-30T04:49:02.353Z,33.53
2018-08-30T04:51:06.176Z,35.47
2018-08-30T04:53:09.344Z,31.50
2018-08-30T04:55:12.589Z,36.37
2018-08-30T04:57:15.804Z,42.00
2018-08-30T04:59:18.967Z,39.80
2018-08-30T05:01:22.704Z,32.60
2018-08-30T05:03:25.900Z,39.07
2018-08-30T05:05:29.084Z,32.80
2018-08-30T05:07:32.299Z,28.73
2018-08-30T05:09:35.476Z,40.97
2018-08-30T05:11:38.679Z,37.80
2018-08-30T05:13:42.232Z,42.43
2018-08-30T05:15:46.300Z,45.87
2018-08-30T05:17:49.465Z,34.30
2018-08-30T05:19:52.952Z,38.03
2018-08-30T05:21:56.787Z,39.10
2018-08-30T05:24:00.353Z,41.53
2018-08-30T05:26:04.040Z,45.57
2018-08-30T05:28:07.797Z,51.97
2018-08-30T05:30:10.980Z,42.70
2018-08-30T05:32:14.214Z,43.60
2018-08-30T05:34:17.419Z,45.40
2018-08-30T05:36:20.620Z,36.53
2018-08-30T05:38:24.108Z,41.87
2018-08-30T05:40:27.308Z,33.90
2018-08-30T05:42:30.875Z,32.37
2018-08-30T05:44:34.142Z,39.40
2018-08-30T05:46:37.493Z,37.20
2018-08-30T05:48:40.915Z,40.40
2018-08-30T05:50:45.072Z,39.63
2018-08-30T05:52:48.245Z,40.53
2018-08-30T05:54:51.740Z,35.20
2018-08-30T05:56:55.505Z,42.47
2018-08-30T05:58:58.713Z,35.67
2018-08-30T06:01:01.914Z,37.97
2018-08-30T06:03:05.128Z,36.63
2018-08-30T06:05:08.665Z,35.63
2018-08-30T06:07:11.906Z,33.17
2018-08-30T06:09:15.228Z,35.80
2018-08-30T06:11:18.393Z,31.97
2018-08-30T06:13:21.724Z,35.30
2018-08-30T06:15:24.899Z,29.30
2018-08-30T06:17:28.060Z,38.97
2018-08-30T06:19:31.600Z,31.47
2018-08-30T06:21:34.788Z,27.43
2018-08-30T06:23:38.057Z,35.90
2018-08-30T06:25:41.313Z,36.90
2018-08-30T06:27:44.534Z,36.10
2018-08-30T06:29:48.033Z,22.60
2018-08-30T06:31:51.228Z,31.33
2018-08-30T06:33:54.404Z,25.10
2018-08-30T06:35:57.629Z,25.07
2018-08-30T06:38:01.253Z,29.00
2018-08-30T06:40:04.456Z,29.07
2018-08-30T06:42:07.642Z,24.10
2018-08-30T06:44:10.896Z,21.00
2018-08-30T06:46:14.089Z,28.53
2018-08-30T06:48:17.351Z,21.00
2018-08-30T06:50:20.540Z,27.20
2018-08-30T06:52:23.708Z,25.30
2018-08-30T06:54:26.884Z,27.73
2018-08-30T06:56:30.294Z,25.93
2018-08-30T06:58:33.621Z,27.60
2018-08-30T07:00:36.970Z,29.60
2018-08-30T07:02:40.383Z,27.33
2018-08-30T07:04:44.073Z,31.70
2018-08-30T07:06:47.288Z,30.50
2018-08-30T07:08:50.505Z,30.17
2018-08-30T07:10:53.726Z,26.57
2018-08-30T07:12:56.916Z,23.23
2018-08-30T07:15:00.143Z,29.67
2018-08-30T07:17:04.166Z,34.03
2018-08-30T07:19:07.348Z,30.90
2018-08-30T07:21:10.804Z,30.60
2018-08-30T07:23:14.168Z,44.33
2018-08-30T07:25:17.351Z,30.63
2018-08-30T07:27:21.082Z,27.07
2018-08-30T07:29:24.614Z,30.73
2018-08-30T07:31:27.899Z,21.90
2018-08-30T07:33:31.110Z,34.67
2018-08-30T07:35:34.295Z,26.20
2018-08-30T07:37:37.545Z,32.60
2018-08-30T07:39:40.709Z,28.53
2018-08-30T07:41:44.246Z,29.13
2018-08-30T07:43:47.968Z,25.13
2018-08-30T07:45:51.161Z,32.33
2018-08-30T07:47:54.341Z,24.30
2018-08-30T07:49:57.685Z,25.97
2018-08-30T07:52:01.209Z,22.50
2018-08-30T07:54:04.716Z,27.37
2018-08-30T07:56:08.299Z,28.50
2018-08-30T07:58:12.120Z,16.00
2018-08-30T08:00:15.322Z,18.00
2018-08-30T08:02:18.828Z,22.33
2018-08-30T08:04:22.032Z,30.57
2018-08-30T08:06:25.236Z,32.10
2018-08-30T08:08:28.624Z,26.43
2018-08-30T08:10:31.842Z,25.83
2018-08-30T08:12:35.040Z,24.63
2018-08-30T08:14:38.444Z,22.50
2018-08-30T08:16:41.628Z,20.13
2018-08-30T08:18:44.858Z,21.23
2018-08-30T08:20:48.057Z,31.70
2018-08-30T08:22:51.284Z,31.23
2018-08-30T08:24:54.590Z,31.60
2018-08-30T08:26:58.089Z,37.40
2018-08-30T08:29:01.284Z,25.53
2018-08-30T08:31:05.195Z,27.90
2018-08-30T08:33:08.597Z,28.80
2018-08-30T08:35:11.780Z,24.77
2018-08-30T08:37:15.311Z,26.70
2018-08-30T08:39:18.752Z,30.40
2018-08-30T08:41:21.973Z,30.03
2018-08-30T08:43:25.140Z,27.40
2018-08-30T08:45:28.370Z,27.03
2018-08-30T08:47:31.573Z,28.00
2018-08-30T08:49:34.828Z,30.87
2018-08-30T08:51:38.028Z,24.57
2018-08-30T08:53:41.521Z,23.50
2018-08-30T08:55:44.877Z,28.13
2018-08-30T08:57:48.087Z,27.30
2018-08-30T08:59:51.679Z,27.37
2018-08-30T09:01:54.900Z,28.63
2018-08-30T09:03:58.636Z,29.23
2018-08-30T09:06:01.824Z,24.67
2018-08-30T09:08:05.746Z,26.40
2018-08-30T09:10:09.229Z,25.20
2018-08-30T09:12:12.912Z,28.93
2018-08-30T09:14:16.477Z,32.53
2018-08-30T09:16:20.016Z,29.03
2018-08-30T09:18:23.502Z,26.37
2018-08-30T09:20:26.984Z,27.70
2018-08-30T09:22:30.192Z,27.17
2018-08-30T09:24:33.726Z,25.13
2018-08-30T09:26:36.989Z,26.47
2018-08-30T09:28:40.880Z,26.13
2018-08-30T09:30:44.087Z,18.70
2018-08-30T09:32:47.330Z,21.80
2018-08-30T09:34:50.504Z,19.37
2018-08-30T09:36:54.061Z,22.17
2018-08-30T09:38:57.252Z,21.10
2018-08-30T09:41:00.765Z,27.87
2018-08-30T09:43:04.291Z,28.40
2018-08-30T09:45:07.465Z,11.97
2018-08-30T09:47:10.973Z,22.33
2018-08-30T09:49:14.215Z,20.30
2018-08-30T09:51:17.749Z,17.20
2018-08-30T09:53:20.967Z,21.50
2018-08-30T09:55:24.157Z,21.33
2018-08-30T09:57:27.376Z,25.60
2018-08-30T09:59:30.743Z,24.40
2018-08-30T10:01:39.299Z,18.80
2018-08-30T10:03:42.991Z,23.67
2018-08-30T10:05:46.395Z,18.63
2018-08-30T10:07:49.572Z,18.80
2018-08-30T10:09:53.132Z,18.30
2018-08-30T10:11:56.343Z,15.43
2018-08-30T10:13:59.209Z,17.03
2018-08-30T10:16:02.834Z,18.60
2018-08-30T10:18:06.496Z,17.70
2018-08-30T10:20:09.692Z,17.10
2018-08-30T10:22:12.956Z,21.80
2018-08-30T10:24:16.148Z,18.80
2018-08-30T10:26:19.336Z,22.23
2018-08-30T10:28:22.711Z,17.40
2018-08-30T10:30:26.078Z,12.57
2018-08-30T10:32:29.605Z,18.50
2018-08-30T10:34:33.334Z,16.80
2018-08-30T10:36:36.501Z,19.03
2018-08-30T10:38:39.690Z,12.67
2018-08-30T10:40:43.235Z,17.20
2018-08-30T10:42:46.639Z,12.03
2018-08-30T10:44:50.003Z,16.60
2018-08-30T10:46:53.568Z,18.40
2018-08-30T10:48:56.756Z,19.80
2018-08-30T10:51:00.360Z,17.07
2018-08-30T10:53:04.052Z,20.97
2018-08-30T10:55:07.631Z,23.97
2018-08-30T10:57:10.829Z,16.23
2018-08-30T10:59:14.350Z,21.10
2018-08-30T11:01:17.860Z,24.53
2018-08-30T11:03:21.039Z,17.23
2018-08-30T11:05:24.624Z,22.30
2018-08-30T11:07:27.829Z,28.20
2018-08-30T11:09:31.021Z,25.50
2018-08-30T11:11:35.017Z,27.03
2018-08-30T11:13:38.852Z,30.77
2018-08-30T11:15:42.708Z,19.13
2018-08-30T11:17:46.280Z,16.83
2018-08-30T11:19:49.445Z,25.80
2018-08-30T11:21:52.977Z,26.07
2018-08-30T11:23:57.009Z,24.83
2018-08-30T11:26:00.228Z,23.67
2018-08-30T11:28:03.749Z,27.37
2018-08-30T11:30:07.459Z,23.40
2018-08-30T11:32:10.984Z,26.30
2018-08-30T11:34:14.256Z,20.97
2018-08-30T11:36:17.464Z,26.70
2018-08-30T11:38:20.652Z,22.40
2018-08-30T11:40:23.898Z,18.60
2018-08-30T11:42:27.507Z,21.67
2018-08-30T11:44:30.853Z,17.13
2018-08-30T11:46:34.684Z,14.43
2018-08-30T11:48:37.876Z,20.70
2018-08-30T11:50:41.396Z,16.03
2018-08-30T11:52:44.693Z,17.73
2018-08-30T11:54:48.409Z,26.03
2018-08-30T11:56:51.947Z,14.20
2018-08-30T11:58:55.389Z,12.07
2018-08-30T12:00:59.194Z,15.97
2018-08-30T12:03:03.149Z,15.37
2018-08-30T12:05:07.212Z,24.73
2018-08-30T12:07:10.462Z,15.37
2018-08-30T12:09:15.016Z,16.10
2018-08-30T12:11:18.681Z,14.27
2018-08-30T12:13:21.976Z,11.90
2018-08-30T12:15:25.422Z,12.00
2018-08-30T12:17:28.656Z,15.10
2018-08-30T12:19:32.460Z,16.57
2018-08-30T12:21:35.955Z,15.00
2018-08-30T12:23:39.796Z,21.67
2018-08-30T12:25:42.964Z,10.43
2018-08-30T12:27:46.151Z,11.13
2018-08-30T12:29:49.794Z,14.43
2018-08-30T12:31:53.200Z,13.07
2018-08-30T12:33:56.588Z,10.17
2018-08-30T12:36:00.180Z,13.20
2018-08-30T12:38:03.679Z,14.43
2018-08-30T12:40:07.321Z,10.40
2018-08-30T12:42:10.942Z,18.13
2018-08-30T12:44:15.143Z,13.20
2018-08-30T12:46:18.869Z,9.03
2018-08-30T12:48:22.258Z,11.63
2018-08-30T12:50:26.076Z,8.70
2018-08-30T12:52:29.405Z,10.23
2018-08-30T12:54:32.754Z,7.57
2018-08-30T12:56:36.793Z,8.60
2018-08-30T12:58:40.489Z,9.93
2018-08-30T13:00:44.334Z,12.30
2018-08-30T13:02:47.749Z,6.30
2018-08-30T13:04:51.169Z,5.93
2018-08-30T13:06:56.178Z,8.40
2018-08-30T13:08:59.762Z,11.27
2018-08-30T13:11:03.132Z,9.17
2018-08-30T13:13:06.817Z,7.57
2018-08-30T13:15:10.646Z,11.00
2018-08-30T13:17:13.772Z,8.20
2018-08-30T13:19:17.403Z,8.43
2018-08-30T13:21:20.802Z,6.60
2018-08-30T13:23:24.176Z,9.40
2018-08-30T13:25:27.953Z,9.63
2018-08-30T13:27:31.696Z,10.03
2018-08-30T13:29:35.455Z,10.23
2018-08-30T13:31:38.918Z,8.00
2018-08-30T13:33:42.440Z,8.73
2018-08-30T13:35:45.798Z,9.37
2018-08-30T13:37:49.218Z,7.60
2018-08-30T13:39:53.189Z,8.13
2018-08-30T13:41:56.718Z,10.43
2018-08-30T13:44:00.390Z,13.67
2018-08-30T13:46:04.110Z,7.23
2018-08-30T13:48:07.964Z,12.90
2018-08-30T13:50:11.565Z,8.27
2018-08-30T13:52:14.993Z,7.80
2018-08-30T13:54:18.859Z,10.73
2018-08-30T13:56:23.097Z,10.20
2018-08-30T13:58:26.559Z,9.83
2018-08-30T14:00:30.469Z,13.80
2018-08-30T14:02:33.417Z,12.63
2018-08-30T14:04:36.866Z,11.20
2018-08-30T14:06:40.700Z,10.63
2018-08-30T14:08:44.004Z,11.83
2018-08-30T14:10:47.378Z,8.70
2018-08-30T14:12:51.095Z,8.50
2018-08-30T14:14:54.223Z,13.17
2018-08-30T14:16:57.467Z,11.83
2018-08-30T14:19:00.657Z,14.53
2018-08-30T14:21:04.106Z,25.03
2018-08-30T14:23:07.293Z,10.73
2018-08-30T14:25:10.474Z,10.07
2018-08-30T14:27:13.656Z,10.33
2018-08-30T14:29:16.885Z,10.40
2018-08-30T14:31:20.258Z,9.13
2018-08-30T14:33:23.461Z,9.53
2018-08-30T14:35:26.624Z,5.90
2018-08-30T14:37:29.854Z,9.53
2018-08-30T14:39:33.321Z,10.27
2018-08-30T14:41:36.723Z,11.53
2018-08-30T14:43:40.056Z,5.30
2018-08-30T14:45:43.257Z,7.83
2018-08-30T14:47:46.581Z,15.27
2018-08-30T14:49:50.288Z,11.20
2018-08-30T14:51:53.893Z,9.90
2018-08-30T14:53:57.398Z,9.80
2018-08-30T14:56:00.632Z,10.23
2018-08-30T14:58:03.838Z,15.23
2018-08-30T15:00:07.436Z,9.83
2018-08-30T15:02:10.763Z,10.67
2018-08-30T15:04:14.320Z,6.20
2018-08-30T15:06:17.772Z,12.70
2018-08-30T15:08:21.118Z,6.13
2018-08-30T15:10:24.353Z,6.90
2018-08-30T15:12:28.091Z,7.03
2018-08-30T15:14:31.303Z,10.70
2018-08-30T15:16:34.836Z,7.50
2018-08-30T15:18:38.392Z,12.27
2018-08-30T15:20:41.637Z,11.83
2018-08-30T15:22:44.976Z,5.23
2018-08-30T15:24:48.652Z,9.87
2018-08-30T15:26:52.132Z,9.57
2018-08-30T15:28:55.292Z,9.80
2018-08-30T15:30:58.529Z,8.47
2018-08-30T15:33:01.973Z,8.57
2018-08-30T15:35:05.540Z,10.50
2018-08-30T15:37:09.237Z,7.70
2018-08-30T15:39:12.996Z,4.53
2018-08-30T15:41:16.746Z,4.87
2018-08-30T15:43:20.324Z,13.13
2018-08-30T15:45:23.727Z,6.67
2018-08-30T15:47:27.225Z,20.53
2018-08-30T15:49:31.009Z,12.70
2018-08-30T15:51:34.344Z,9.80
2018-08-30T15:53:37.777Z,8.10
2018-08-30T15:55:41.620Z,6.30
2018-08-30T15:57:45.151Z,5.67
2018-08-30T15:59:48.532Z,8.27
2018-08-30T16:01:51.924Z,2.37
2018-08-30T16:03:55.217Z,8.40
2018-08-30T16:05:58.592Z,4.20
2018-08-30T16:08:02.329Z,11.50
2018-08-30T16:10:06.466Z,12.97
2018-08-30T16:12:09.733Z,9.27
2018-08-30T16:14:14.808Z,8.27
2018-08-30T16:16:18.232Z,14.43
2018-08-30T16:18:21.843Z,14.63
2018-08-30T16:20:25.109Z,15.67
2018-08-30T16:22:40.392Z,9.57
2018-08-30T16:24:44.238Z,8.53
2018-08-30T16:26:47.680Z,5.13
2018-08-30T16:28:51.056Z,6.20
2018-08-30T16:30:54.425Z,3.43
2018-08-30T16:32:58.356Z,1.10
2018-08-30T16:35:01.734Z,8.33
2018-08-30T16:37:06.219Z,5.00
2018-08-30T16:39:10.600Z,2.63
2018-08-30T16:41:14.105Z,6.50
2018-08-30T16:43:18.266Z,7.37
2018-08-30T16:45:22.092Z,10.13
2018-08-30T16:47:25.480Z,11.13
2018-08-30T16:49:29.069Z,7.00
2018-08-30T16:51:32.448Z,5.73
2018-08-30T16:53:35.637Z,8.63
2018-08-30T16:55:39.112Z,3.10
2018-08-30T16:57:42.728Z,1.73
2018-08-30T16:59:45.901Z,3.47
2018-08-30T17:01:49.296Z,8.90
2018-08-30T17:03:52.660Z,7.20
2018-08-30T17:05:55.940Z,3.00
2018-08-30T17:07:59.512Z,9.80
2018-08-30T17:10:02.928Z,5.77
2018-08-30T17:12:06.472Z,9.27
2018-08-30T17:14:09.884Z,4.53
2018-08-30T17:16:13.392Z,5.73
2018-08-30T17:18:16.770Z,10.13
2018-08-30T17:20:27.648Z,9.50
2018-08-30T17:22:30.856Z,8.23
2018-08-30T17:24:34.237Z,6.13
2018-08-30T17:26:37.437Z,14.37
2018-08-30T17:28:40.832Z,11.10
2018-08-30T17:30:44.204Z,17.43
2018-08-30T17:32:48.006Z,2.57
2018-08-30T17:34:51.337Z,5.23
2018-08-30T17:36:54.601Z,7.27
2018-08-30T17:38:58.020Z,2.93
2018-08-30T17:41:01.453Z,9.90
2018-08-30T17:43:04.716Z,17.47
2018-08-30T17:45:08.099Z,5.17
2018-08-30T17:47:11.675Z,4.67
2018-08-30T17:49:14.920Z,2.70
2018-08-30T17:51:18.356Z,7.17
2018-08-30T17:53:22.094Z,8.23
2018-08-30T17:55:25.572Z,7.50
2018-08-30T17:57:29.404Z,4.90
2018-08-30T17:59:32.879Z,5.70
2018-08-30T18:01:36.305Z,7.20
2018-08-30T18:03:39.576Z,3.90
2018-08-30T18:05:42.901Z,10.27
2018-08-30T18:07:46.291Z,12.40
2018-08-30T18:09:49.672Z,4.60
2018-08-30T18:11:53.068Z,11.53
2018-08-30T18:13:56.272Z,10.43
2018-08-30T18:15:59.447Z,9.17
2018-08-30T18:18:02.748Z,5.90
2018-08-30T18:20:06.317Z,5.07
2018-08-30T18:22:09.767Z,5.47
2018-08-30T18:24:13.085Z,14.30
2018-08-30T18:26:16.479Z,5.67
2018-08-30T18:28:19.649Z,8.83
2018-08-30T18:30:22.928Z,6.73
2018-08-30T18:32:26.094Z,5.03
2018-08-30T18:34:29.290Z,5.37
2018-08-30T18:36:32.477Z,4.67
2018-08-30T18:38:35.685Z,8.77
2018-08-30T18:40:39.013Z,6.57
2018-08-30T18:42:42.256Z,2.93
2018-08-30T18:44:45.413Z,5.53
2018-08-30T18:46:48.593Z,9.27
2018-08-30T18:48:52.122Z,10.33
2018-08-30T18:50:55.296Z,6.60
2018-08-30T18:52:58.503Z,5.73
2018-08-30T18:55:02.197Z,10.63
2018-08-30T18:57:05.393Z,5.17
2018-08-30T18:59:08.852Z,29.20
2018-08-30T19:01:12.118Z,5.57
2018-08-30T19:03:15.680Z,6.90
2018-08-30T19:05:18.855Z,8.27
2018-08-30T19:07:22.381Z,8.63
2018-08-30T19:09:25.604Z,5.60
2018-08-30T19:11:28.788Z,9.37
2018-08-30T19:13:32.253Z,5.60
2018-08-30T19:15:40.912Z,11.83
2018-08-30T19:17:49.819Z,3.33
2018-08-30T19:19:53.315Z,4.67
2018-08-30T19:21:56.892Z,5.90
2018-08-30T19:24:00.070Z,4.37
2018-08-30T19:26:03.760Z,2.30
2018-08-30T19:28:07.340Z,14.30
2018-08-30T19:30:16.133Z,4.67
2018-08-30T19:32:20.084Z,11.10
2018-08-30T19:34:23.272Z,5.07
2018-08-30T19:36:29.768Z,5.23
2018-08-30T19:38:32.971Z,6.23
2018-08-30T19:40:41.587Z,10.00
2018-08-30T19:42:44.816Z,16.47
2018-08-30T19:44:48.238Z,3.30
2018-08-30T19:46:51.467Z,7.80
2018-08-30T19:48:54.676Z,11.20
2018-08-30T19:50:58.503Z,11.67
2018-08-30T19:53:01.873Z,9.03
2018-08-30T19:55:05.389Z,11.33
2018-08-30T19:57:08.577Z,9.20
2018-08-30T19:59:11.801Z,10.10
2018-08-30T20:01:15.192Z,12.53
2018-08-30T20:03:18.652Z,4.10
2018-08-30T20:05:22.211Z,11.97
2018-08-30T20:07:25.629Z,10.63
2018-08-30T20:09:28.972Z,6.60
2018-08-30T20:11:32.487Z,10.50
2018-08-30T20:13:35.916Z,7.93
2018-08-30T20:15:39.473Z,8.13
2018-08-30T20:17:42.868Z,11.43
2018-08-30T20:19:46.055Z,6.93
2018-08-30T20:21:49.252Z,3.50
2018-08-30T20:23:52.585Z,5.13
2018-08-30T20:25:55.814Z,6.80
2018-08-30T20:27:59.074Z,6.70
2018-08-30T20:30:03.084Z,11.63
2018-08-30T20:32:07.196Z,13.20
2018-08-30T20:34:10.576Z,5.60
2018-08-30T20:36:14.151Z,12.83
2018-08-30T20:38:17.336Z,6.50
2018-08-30T20:40:20.562Z,7.80
2018-08-30T20:42:24.005Z,9.07
2018-08-30T20:44:27.336Z,2.67
2018-08-30T20:46:30.595Z,3.60
2018-08-30T20:48:33.928Z,16.37
2018-08-30T20:50:37.496Z,13.30
2018-08-30T20:52:40.672Z,6.57
2018-08-30T20:54:43.858Z,9.20
2018-08-30T20:56:47.137Z,5.80
2018-08-30T20:58:50.300Z,7.57
2018-08-30T21:00:53.819Z,4.17
2018-08-30T21:02:57.253Z,3.27
2018-08-30T21:05:01.528Z,3.43
2018-08-30T21:07:05.464Z,7.57
2018-08-30T21:09:09.418Z,7.07
2018-08-30T21:11:13.164Z,6.27
2018-08-30T21:13:16.335Z,6.50
2018-08-30T21:15:19.519Z,3.30
2018-08-30T21:17:23.037Z,4.10
2018-08-30T21:19:26.223Z,9.07
2018-08-30T21:21:29.441Z,6.97
2018-08-30T21:23:32.758Z,3.40
2018-08-30T21:25:35.973Z,3.23
2018-08-30T21:27:39.275Z,7.50
2018-08-30T21:29:42.704Z,5.30
2018-08-30T21:31:45.933Z,5.27
2018-08-30T21:33:49.121Z,11.40
2018-08-30T21:35:52.379Z,5.87
2018-08-30T21:37:55.773Z,6.23
2018-08-30T21:39:59.612Z,4.20
2018-08-30T21:42:02.785Z,7.13
2018-08-30T21:44:06.597Z,5.00
2018-08-30T21:46:09.797Z,4.00
2018-08-30T21:48:13.333Z,6.63
2018-08-30T21:50:16.720Z,9.37
2018-08-30T21:52:20.406Z,4.57
2018-08-30T21:54:23.598Z,8.60
2018-08-30T21:56:26.820Z,13.53
2018-08-30T21:58:29.992Z,6.00
2018-08-30T22:00:33.188Z,3.63
2018-08-30T22:02:36.403Z,5.13
2018-08-30T22:04:40.096Z,9.00
2018-08-30T22:06:43.464Z,5.80
2018-08-30T22:08:47.014Z,24.50
2018-08-30T22:10:50.203Z,6.40
2018-08-30T22:12:53.436Z,10.90
2018-08-30T22:14:56.589Z,12.70
2018-08-30T22:17:00.699Z,9.83
2018-08-30T22:19:04.248Z,7.73
2018-08-30T22:21:07.404Z,7.23
2018-08-30T22:23:10.580Z,12.40
2018-08-30T22:25:13.825Z,3.93
2018-08-30T22:27:17.342Z,20.53
2018-08-30T22:29:20.526Z,8.53
2018-08-30T22:31:24.231Z,9.13
2018-08-30T22:33:27.466Z,10.17
2018-08-30T22:35:30.971Z,6.53
2018-08-30T22:37:34.184Z,5.60
2018-08-30T22:39:37.412Z,9.53
2018-08-30T22:41:40.605Z,7.70
2018-08-30T22:43:43.785Z,6.57
2018-08-30T22:45:47.260Z,7.03
2018-08-30T22:47:50.532Z,11.83
2018-08-30T22:49:53.724Z,12.30
2018-08-30T22:51:57.238Z,17.13
2018-08-30T22:54:00.469Z,5.23
2018-08-30T22:56:03.962Z,6.90
2018-08-30T22:58:07.353Z,9.03
2018-08-30T23:00:10.541Z,6.60
2018-08-30T23:02:13.716Z,6.90
2018-08-30T23:04:17.083Z,8.37
2018-08-30T23:06:20.283Z,7.03
2018-08-30T23:08:23.668Z,4.10
2018-08-30T23:10:27.152Z,6.57
2018-08-30T23:12:30.404Z,10.37
2018-08-30T23:14:34.244Z,8.57
2018-08-30T23:16:37.748Z,4.37
2018-08-30T23:18:40.968Z,6.97
2018-08-30T23:20:44.816Z,8.43
2018-08-30T23:22:48.640Z,4.70
2018-08-30T23:24:51.890Z,8.77
2018-08-30T23:26:55.066Z,4.60
2018-08-30T23:28:58.602Z,2.00
2018-08-30T23:31:01.800Z,10.67
2018-08-30T23:33:05.824Z,5.23
2018-08-30T23:35:09.024Z,8.93
2018-08-30T23:37:12.588Z,9.83
2018-08-30T23:39:15.803Z,6.20
2018-08-30T23:41:19.333Z,7.87
2018-08-30T23:43:22.728Z,5.30
2018-08-30T23:45:25.948Z,5.73
2018-08-30T23:47:29.141Z,8.10
2018-08-30T23:49:32.755Z,4.67
2018-08-30T23:51:36.264Z,6.03
2018-08-30T23:53:39.501Z,10.97
2018-08-30T23:55:42.690Z,5.63
2018-08-30T23:57:57.455Z,7.63
